Time;durP1;ratioP1;P1;durP2;ratioP2;P2;SDS_P1;SDS_P2;PMS_P1;PMS_P2;Temp;Humidity;BMP_temperature;BMP_pressure;BME280_temperature;BME280_humidity;BME280_pressure;Samples;Min_cycle;Max_cycle;Signal;HPM_P1;HPM_P2
2023/01/05 00:01:06;;;;;;;;;;;11.30;99.90;;;;;;8384657;28;19947;-69
2023/01/05 00:05:08;;;;;;;;;;;11.30;99.90;;;;;;8386095;28;19932;-68
2023/01/05 00:09:11;;;;;;;;;;;11.30;99.90;;;;;;8366770;28;20020;-68
2023/01/05 00:26:13;;;;;;;;;;;11.10;99.90;;;;;;8387838;28;20308;-68
2023/01/05 00:30:15;;;;;;;;;;;11.10;99.90;;;;;;8378118;28;20288;-70
2023/01/05 00:34:17;;;;;;;;;;;11.10;99.90;;;;;;8389439;28;19932;-68
2023/01/05 00:38:18;;;;;;;;;;;11.10;99.90;;;;;;8375097;28;19925;-69
2023/01/05 00:42:20;;;;;;;;;;;11.10;99.90;;;;;;8403877;28;19972;-68
2023/01/05 00:46:22;;;;;;;;;;;11.20;99.90;;;;;;8375685;28;19925;-68
2023/01/05 00:50:24;;;;;;;;;;;11.20;99.90;;;;;;8390521;28;20325;-68
2023/01/05 00:54:25;;;;;;;;;;;11.20;99.90;;;;;;8386928;28;19928;-69
2023/01/05 00:58:27;;;;;;;;;;;11.20;99.90;;;;;;8377733;28;20364;-69
2023/01/05 01:02:29;;;;;;;;;;;11.20;99.90;;;;;;8391822;28;19925;-69
2023/01/05 01:06:30;;;;;;;;;;;11.20;99.90;;;;;;8381839;28;19928;-69
2023/01/05 01:10:32;;;;;;;;;;;11.20;99.90;;;;;;8384097;28;19930;-68
2023/01/05 01:14:34;;;;;;;;;;;11.10;99.90;;;;;;8385888;28;19930;-68
2023/01/05 01:18:36;;;;;;;;;;;11.10;99.90;;;;;;8384904;28;19959;-69
2023/01/05 01:22:37;;;;;;;;;;;11.10;99.90;;;;;;8388486;28;20273;-69
2023/01/05 01:26:39;;;;;;;;;;;11.10;99.90;;;;;;8380992;28;20277;-68
2023/01/05 01:30:41;;;;;;;;;;;11.10;99.90;;;;;;8385490;28;19986;-69
2023/01/05 01:34:43;;;;;;;;;;;11.10;99.90;;;;;;8377802;28;20424;-68
2023/01/05 01:38:45;;;;;;;;;;;11.10;99.90;;;;;;8384338;28;19924;-69
2023/01/05 01:42:47;;;;;;;;;;;11.10;99.90;;;;;;8389087;28;19999;-68
2023/01/05 01:46:48;;;;;;;;;;;11.10;99.90;;;;;;8380677;28;20011;-69
2023/01/05 01:50:52;;;;;;;;;;;11.10;99.90;;;;;;8383215;28;20390;-68
2023/01/05 01:54:54;;;;;;;;;;;11.10;99.90;;;;;;8375941;28;19925;-68
2023/01/05 01:58:56;;;;;;;;;;;11.10;99.90;;;;;;8391576;28;19928;-69
2023/01/05 02:02:57;;;;;;;;;;;11.10;99.90;;;;;;8373738;28;19935;-69
2023/01/05 02:07:00;;;;;;;;;;;11.00;99.90;;;;;;8383812;28;19932;-68
2023/01/05 02:11:07;;;;;;;;;;;11.10;99.90;;;;;;8380960;28;19931;-69
2023/01/05 02:15:09;;;;;;;;;;;11.00;99.90;;;;;;8377842;28;20324;-68
2023/01/05 02:19:20;;;;;;;;;;;11.00;99.90;;;;;;8375794;28;20355;-69
2023/01/05 02:23:34;;;;;;;;;;;11.00;99.90;;;;;;8375511;28;19950;-69
2023/01/05 02:27:38;;;;;;;;;;;11.00;99.90;;;;;;8383755;28;20588;-68
2023/01/05 02:31:47;;;;;;;;;;;11.00;99.90;;;;;;8386724;28;19924;-69
2023/01/05 02:35:58;;;;;;;;;;;11.00;99.90;;;;;;8384827;28;19932;-68
2023/01/05 02:40:04;;;;;;;;;;;10.90;99.90;;;;;;8369470;28;19925;-68
2023/01/05 02:44:07;;;;;;;;;;;10.90;99.90;;;;;;8374285;28;19931;-68
2023/01/05 02:48:08;;;;;;;;;;;10.90;99.90;;;;;;8378054;28;20372;-69
2023/01/05 02:52:10;;;;;;;;;;;10.90;99.90;;;;;;8379195;28;19929;-69
2023/01/05 02:56:14;;;;;;;;;;;10.90;99.90;;;;;;8376343;28;19956;-69
2023/01/05 03:00:24;;;;;;;;;;;10.90;99.90;;;;;;8372425;28;19931;-69
2023/01/05 03:04:45;;;;;;;;;;;10.90;99.90;;;;;;8360258;28;20015;-69
2023/01/05 03:08:51;;;;;;;;;;;10.90;99.90;;;;;;8380806;28;19924;-69
2023/01/05 03:17:17;;;;;;;;;;;11.00;99.90;;;;;;8396043;28;20379;-69
2023/01/05 03:21:19;;;;;;;;;;;11.00;99.90;;;;;;8384609;28;19929;-69
2023/01/05 03:38:32;;;;;;;;;;;10.90;99.90;;;;;;8382420;28;19963;-68
2023/01/05 03:42:35;;;;;;;;;;;10.90;99.90;;;;;;8379797;28;19929;-68
2023/01/05 03:46:37;;;;;;;;;;;10.90;99.90;;;;;;8386485;28;20443;-69
2023/01/05 03:50:39;;;;;;;;;;;10.90;99.90;;;;;;8383362;28;19924;-69
2023/01/05 03:54:41;;;;;;;;;;;10.90;99.90;;;;;;8381034;28;19925;-69
2023/01/05 03:58:42;;;;;;;;;;;10.90;99.90;;;;;;8380467;28;20280;-68
2023/01/05 04:02:44;;;;;;;;;;;10.90;99.90;;;;;;8383831;28;19925;-69
2023/01/05 04:06:46;;;;;;;;;;;10.90;99.90;;;;;;8391017;28;19975;-69
2023/01/05 04:10:50;;;;;;;;;;;10.90;99.90;;;;;;8386026;28;19925;-69
2023/01/05 04:14:51;;;;;;;;;;;11.00;99.90;;;;;;8389875;28;19928;-69
2023/01/05 04:18:53;;;;;;;;;;;11.00;99.90;;;;;;8397449;28;19924;-68
2023/01/05 04:22:55;;;;;;;;;;;11.00;99.90;;;;;;8394281;28;19968;-69
2023/01/05 04:26:56;;;;;;;;;;;11.00;99.90;;;;;;8369959;28;19933;-69
2023/01/05 04:30:58;;;;;;;;;;;11.00;99.90;;;;;;8382283;28;19936;-68
2023/01/05 04:35:00;;;;;;;;;;;11.00;99.90;;;;;;8379474;28;19928;-69
2023/01/05 04:39:09;;;;;;;;;;;11.00;99.90;;;;;;8379307;28;19928;-68
2023/01/05 04:43:10;;;;;;;;;;;11.00;99.90;;;;;;8383000;28;19931;-68
2023/01/05 04:47:12;;;;;;;;;;;11.00;99.90;;;;;;8381123;28;19952;-69
2023/01/05 04:51:14;;;;;;;;;;;11.00;99.90;;;;;;8387334;28;19970;-68
2023/01/05 04:55:15;;;;;;;;;;;11.00;99.90;;;;;;8385459;28;20601;-69
2023/01/05 04:59:17;;;;;;;;;;;11.00;99.90;;;;;;8387680;28;20012;-68
2023/01/05 05:03:18;;;;;;;;;;;11.00;99.90;;;;;;8379666;28;19929;-68
2023/01/05 05:07:20;;;;;;;;;;;11.00;99.90;;;;;;8386584;28;20406;-68
2023/01/05 05:11:22;;;;;;;;;;;10.90;99.90;;;;;;8380134;28;19928;-69
2023/01/05 05:15:23;;;;;;;;;;;11.00;99.90;;;;;;8384003;28;19979;-69
2023/01/05 05:19:25;;;;;;;;;;;10.90;99.90;;;;;;8366135;28;20290;-69
2023/01/05 05:23:27;;;;;;;;;;;10.90;99.90;;;;;;8381391;28;19951;-69
2023/01/05 05:27:29;;;;;;;;;;;10.90;99.90;;;;;;8384476;28;20375;-69
2023/01/05 05:31:32;;;;;;;;;;;10.90;99.90;;;;;;8381011;28;20450;-69
2023/01/05 05:35:34;;;;;;;;;;;10.90;99.90;;;;;;8384306;28;19932;-69
2023/01/05 05:39:35;;;;;;;;;;;11.00;99.90;;;;;;8382070;28;19990;-69
2023/01/05 05:43:37;;;;;;;;;;;10.90;99.90;;;;;;8392043;28;20304;-69
2023/01/05 05:47:39;;;;;;;;;;;10.90;99.90;;;;;;8380725;28;19935;-69
2023/01/05 05:51:40;;;;;;;;;;;11.00;99.90;;;;;;8378780;28;19928;-69
2023/01/05 05:55:42;;;;;;;;;;;10.90;99.90;;;;;;8370868;28;20387;-69
2023/01/05 05:59:44;;;;;;;;;;;10.90;99.90;;;;;;8378840;28;19933;-69
2023/01/05 06:03:45;;;;;;;;;;;10.90;99.90;;;;;;8379928;28;20287;-69
2023/01/05 06:07:47;;;;;;;;;;;11.00;99.90;;;;;;8370683;28;20316;-69
2023/01/05 06:11:49;;;;;;;;;;;11.00;99.90;;;;;;8371935;28;20376;-69
2023/01/05 06:15:51;;;;;;;;;;;11.00;99.90;;;;;;8381776;28;19925;-69
2023/01/05 06:19:52;;;;;;;;;;;11.00;99.90;;;;;;8385346;28;19966;-69
2023/01/05 06:23:54;;;;;;;;;;;11.00;99.90;;;;;;8378672;28;19968;-69
2023/01/05 06:27:56;;;;;;;;;;;11.00;99.90;;;;;;8359280;28;19933;-69
2023/01/05 06:31:57;;;;;;;;;;;11.00;99.90;;;;;;8359320;28;19950;-69
2023/01/05 06:35:59;;;;;;;;;;;11.00;99.90;;;;;;8366271;28;19935;-69
2023/01/05 06:40:01;;;;;;;;;;;11.00;99.90;;;;;;8385822;28;19928;-69
2023/01/05 06:44:04;;;;;;;;;;;11.00;99.90;;;;;;8387501;28;20008;-69
2023/01/05 06:48:06;;;;;;;;;;;11.00;99.90;;;;;;8391978;28;19924;-69
2023/01/05 06:52:07;;;;;;;;;;;11.00;99.90;;;;;;8388335;28;19931;-69
2023/01/05 06:56:16;;;;;;;;;;;11.00;99.90;;;;;;8385776;28;19924;-69
2023/01/05 07:00:18;;;;;;;;;;;11.00;99.90;;;;;;8389112;28;19964;-69
2023/01/05 07:04:19;;;;;;;;;;;11.00;99.90;;;;;;8394927;28;20372;-69
2023/01/05 07:08:21;;;;;;;;;;;11.00;99.90;;;;;;8384781;28;19925;-69
2023/01/05 07:12:23;;;;;;;;;;;11.00;99.90;;;;;;8385457;28;19972;-69
2023/01/05 07:16:24;;;;;;;;;;;11.00;99.90;;;;;;8378401;28;19929;-69
2023/01/05 07:20:26;;;;;;;;;;;10.90;99.90;;;;;;8393121;28;19987;-68
2023/01/05 07:24:29;;;;;;;;;;;10.90;99.90;;;;;;8398010;28;20366;-69
2023/01/05 07:28:31;;;;;;;;;;;10.90;99.90;;;;;;8380060;28;19924;-69
2023/01/05 07:32:32;;;;;;;;;;;10.90;99.90;;;;;;8395533;28;20016;-69
2023/01/05 07:36:34;;;;;;;;;;;10.90;99.90;;;;;;8389537;28;19970;-69
2023/01/05 07:40:35;;;;;;;;;;;10.90;99.90;;;;;;8408663;28;19935;-69
2023/01/05 07:44:37;;;;;;;;;;;10.90;99.90;;;;;;8381852;28;20019;-68
2023/01/05 07:48:40;;;;;;;;;;;10.90;99.90;;;;;;8376326;28;19938;-68
2023/01/05 07:52:42;;;;;;;;;;;10.90;99.90;;;;;;8386823;28;19932;-69
2023/01/05 07:56:43;;;;;;;;;;;10.90;99.90;;;;;;8390334;28;20422;-69
2023/01/05 08:00:45;;;;;;;;;;;10.80;99.90;;;;;;8386453;28;19924;-69
2023/01/05 08:04:47;;;;;;;;;;;10.80;99.90;;;;;;8390836;28;19946;-68
2023/01/05 08:08:48;;;;;;;;;;;10.80;99.90;;;;;;8375903;28;19999;-69
2023/01/05 08:17:10;;;;;;;;;;;10.70;99.90;;;;;;8391969;28;19978;-68
2023/01/05 08:21:12;;;;;;;;;;;10.70;99.90;;;;;;8392410;28;20387;-68
2023/01/05 08:25:13;;;;;;;;;;;10.70;99.90;;;;;;8391282;28;19924;-68
2023/01/05 08:29:15;;;;;;;;;;;10.70;99.90;;;;;;8397185;28;19971;-68
2023/01/05 08:33:17;;;;;;;;;;;10.70;99.90;;;;;;8391695;28;19968;-67
2023/01/05 08:37:18;;;;;;;;;;;10.70;99.90;;;;;;8389798;28;19968;-68
2023/01/05 08:41:21;;;;;;;;;;;10.60;99.90;;;;;;8391271;28;19932;-68
2023/01/05 08:45:23;;;;;;;;;;;10.60;99.90;;;;;;8386504;28;20003;-68
2023/01/05 08:49:25;;;;;;;;;;;10.70;99.90;;;;;;8384495;28;19931;-68
2023/01/05 08:53:26;;;;;;;;;;;10.70;99.90;;;;;;8392473;28;20422;-69
2023/01/05 08:57:29;;;;;;;;;;;10.70;99.90;;;;;;8389738;28;19924;-69
2023/01/05 09:01:31;;;;;;;;;;;10.70;99.90;;;;;;8389728;28;19929;-69
2023/01/05 09:05:32;;;;;;;;;;;10.70;99.90;;;;;;8389566;28;19935;-69
2023/01/05 09:09:34;;;;;;;;;;;10.80;99.90;;;;;;8387140;28;19925;-69
2023/01/05 09:13:37;;;;;;;;;;;10.80;99.90;;;;;;8383698;28;19931;-69
2023/01/05 09:17:39;;;;;;;;;;;10.80;99.90;;;;;;8383694;28;19924;-69
2023/01/05 09:21:41;;;;;;;;;;;10.80;99.90;;;;;;8387283;28;19952;-69
2023/01/05 09:25:42;;;;;;;;;;;10.80;99.90;;;;;;8388625;28;19924;-69
2023/01/05 09:29:44;;;;;;;;;;;10.80;99.90;;;;;;8393273;28;19931;-68
2023/01/05 09:33:46;;;;;;;;;;;10.90;99.90;;;;;;8395833;28;19947;-68
2023/01/05 09:37:48;;;;;;;;;;;10.90;99.90;;;;;;8384989;28;19931;-69
2023/01/05 09:41:52;;;;;;;;;;;10.90;99.90;;;;;;8380897;28;19925;-68
2023/01/05 09:45:55;;;;;;;;;;;11.00;99.90;;;;;;8383688;28;19935;-68
2023/01/05 09:49:58;;;;;;;;;;;11.00;99.90;;;;;;8384824;28;19928;-68
2023/01/05 09:54:00;;;;;;;;;;;11.00;99.90;;;;;;8392756;28;20027;-68
2023/01/05 09:58:05;;;;;;;;;;;11.00;99.90;;;;;;8386793;28;19979;-69
2023/01/05 10:02:28;;;;;;;;;;;11.00;99.90;;;;;;8390649;28;20011;-68
2023/01/05 10:06:33;;;;;;;;;;;11.00;99.90;;;;;;8382386;28;19928;-69
2023/01/05 10:10:38;;;;;;;;;;;11.10;99.90;;;;;;8388321;28;20368;-68
2023/01/05 10:14:54;;;;;;;;;;;11.10;99.90;;;;;;8381656;28;20384;-68
2023/01/05 10:18:56;;;;;;;;;;;11.10;99.90;;;;;;8388757;28;19931;-69
2023/01/05 10:23:06;;;;;;;;;;;11.10;99.90;;;;;;8382148;28;19929;-69
2023/01/05 10:27:26;;;;;;;;;;;11.10;99.90;;;;;;8387219;28;19925;-69
2023/01/05 10:31:40;;;;;;;;;;;11.10;99.90;;;;;;8380295;28;20301;-68
2023/01/05 10:35:56;;;;;;;;;;;11.20;99.90;;;;;;8385044;28;19929;-69
2023/01/05 10:40:13;;;;;;;;;;;11.20;99.90;;;;;;8378752;28;20380;-68
2023/01/05 10:44:18;;;;;;;;;;;11.20;99.90;;;;;;8386576;28;19924;-69
2023/01/05 10:48:23;;;;;;;;;;;11.20;99.90;;;;;;8381900;28;19964;-69
2023/01/05 10:52:24;;;;;;;;;;;11.20;99.90;;;;;;8382354;28;20446;-68
2023/01/05 10:56:28;;;;;;;;;;;11.30;99.90;;;;;;8389549;28;20007;-69
2023/01/05 11:00:40;;;;;;;;;;;11.30;99.90;;;;;;8369720;28;19964;-69
2023/01/05 11:04:45;;;;;;;;;;;11.40;99.90;;;;;;8380550;28;19928;-69
2023/01/05 11:08:47;;;;;;;;;;;11.50;99.90;;;;;;8380965;28;19928;-69
2023/01/05 11:12:50;;;;;;;;;;;11.80;99.90;;;;;;8388766;28;19925;-69
2023/01/05 11:16:53;;;;;;;;;;;11.90;99.90;;;;;;8382239;28;20353;-68
2023/01/05 11:21:03;;;;;;;;;;;12.00;99.90;;;;;;8388123;28;20506;-69
2023/01/05 11:25:10;;;;;;;;;;;12.10;99.90;;;;;;8385126;28;19987;-69
2023/01/05 11:29:13;;;;;;;;;;;12.20;99.90;;;;;;8389508;28;19928;-68
2023/01/05 11:33:22;;;;;;;;;;;12.20;99.90;;;;;;8378058;28;20011;-69
2023/01/05 11:37:27;;;;;;;;;;;12.30;99.90;;;;;;8378828;28;19930;-69
2023/01/05 11:41:29;;;;;;;;;;;12.20;99.90;;;;;;8382402;28;19971;-69
2023/01/05 11:45:38;;;;;;;;;;;12.20;99.90;;;;;;8392959;28;19934;-69
2023/01/05 11:49:40;;;;;;;;;;;12.30;99.90;;;;;;8367456;28;20403;-68
2023/01/05 11:53:42;;;;;;;;;;;12.30;99.90;;;;;;8394104;28;19972;-69
2023/01/05 11:57:43;;;;;;;;;;;12.40;99.90;;;;;;8393759;28;19959;-68
2023/01/05 12:01:45;;;;;;;;;;;12.40;99.90;;;;;;8382803;28;20380;-69
2023/01/05 12:05:55;;;;;;;;;;;12.50;99.90;;;;;;8386647;28;20396;-69
2023/01/05 12:09:59;;;;;;;;;;;12.80;99.90;;;;;;8384625;28;19928;-69
2023/01/05 12:14:20;;;;;;;;;;;13.10;99.90;;;;;;8385884;28;20405;-69
2023/01/05 12:18:40;;;;;;;;;;;13.70;99.90;;;;;;8376017;28;19924;-69
2023/01/05 12:22:50;;;;;;;;;;;14.10;99.90;;;;;;8388229;28;19929;-69
2023/01/05 12:26:58;;;;;;;;;;;14.50;99.90;;;;;;8381255;28;19932;-69
2023/01/05 12:31:18;;;;;;;;;;;14.70;99.90;;;;;;8375890;28;19928;-69
2023/01/05 12:35:59;;;;;;;;;;;14.80;99.90;;;;;;8381361;28;19932;-69
2023/01/05 12:40:03;;;;;;;;;;;14.80;99.90;;;;;;8385831;28;20011;-69
2023/01/05 12:44:14;;;;;;;;;;;14.40;99.90;;;;;;8375329;28;19932;-69
2023/01/05 12:48:19;;;;;;;;;;;14.00;99.90;;;;;;8388901;28;20388;-69
2023/01/05 12:52:34;;;;;;;;;;;13.60;99.90;;;;;;8370455;28;19963;-69
2023/01/05 12:56:39;;;;;;;;;;;13.20;99.90;;;;;;8384621;28;20482;-69
2023/01/05 13:00:44;;;;;;;;;;;13.10;99.90;;;;;;8392426;28;20329;-69
2023/01/05 13:04:51;;;;;;;;;;;12.90;99.90;;;;;;8391206;28;19931;-69
2023/01/05 13:08:58;;;;;;;;;;;12.80;99.90;;;;;;8385341;28;20027;-69
2023/01/05 13:13:03;;;;;;;;;;;12.60;99.90;;;;;;8365382;28;19925;-68
2023/01/05 13:17:10;;;;;;;;;;;12.50;99.90;;;;;;8387590;28;19931;-69
2023/01/05 13:21:12;;;;;;;;;;;12.40;99.90;;;;;;8399579;28;19995;-69
2023/01/05 13:25:18;;;;;;;;;;;12.40;99.90;;;;;;8395989;28;19939;-69
2023/01/05 13:29:21;;;;;;;;;;;12.30;99.90;;;;;;8373332;28;19929;-69
2023/01/05 13:33:32;;;;;;;;;;;12.30;99.90;;;;;;8381737;28;20387;-68
2023/01/05 13:37:48;;;;;;;;;;;12.30;99.90;;;;;;8393025;28;19924;-69
2023/01/05 13:42:02;;;;;;;;;;;12.30;99.90;;;;;;8386229;28;20011;-69
2023/01/05 13:46:13;;;;;;;;;;;12.30;99.90;;;;;;8389546;28;19925;-69
2023/01/05 13:50:27;;;;;;;;;;;12.30;99.90;;;;;;8390890;28;19975;-69
2023/01/05 13:54:35;;;;;;;;;;;12.30;99.90;;;;;;8388801;28;19924;-69
2023/01/05 13:59:02;;;;;;;;;;;12.30;99.90;;;;;;8376788;28;19925;-68
2023/01/05 14:03:23;;;;;;;;;;;12.20;99.90;;;;;;8388066;28;19947;-69
2023/01/05 14:07:25;;;;;;;;;;;12.20;99.90;;;;;;8384224;28;20368;-69
2023/01/05 14:11:27;;;;;;;;;;;12.10;99.90;;;;;;8392580;28;19925;-69
2023/01/05 14:15:37;;;;;;;;;;;12.10;99.90;;;;;;8365602;28;19924;-69
2023/01/05 14:19:38;;;;;;;;;;;12.10;99.90;;;;;;8379438;28;19925;-69
2023/01/05 14:23:40;;;;;;;;;;;12.10;99.90;;;;;;8388863;28;19924;-69
2023/01/05 14:28:01;;;;;;;;;;;12.00;99.90;;;;;;8369475;28;19946;-69
2023/01/05 14:32:05;;;;;;;;;;;12.00;99.90;;;;;;8390156;28;19924;-69
2023/01/05 14:36:22;;;;;;;;;;;11.90;99.90;;;;;;8387987;28;20463;-69
2023/01/05 14:40:23;;;;;;;;;;;11.90;99.90;;;;;;8383589;28;20353;-69
2023/01/05 14:44:30;;;;;;;;;;;11.90;99.90;;;;;;8386060;28;19924;-69
2023/01/05 14:48:37;;;;;;;;;;;11.80;99.90;;;;;;8381061;28;19929;-69
2023/01/05 14:52:58;;;;;;;;;;;11.80;99.90;;;;;;8384969;28;19971;-69
2023/01/05 14:57:34;;;;;;;;;;;11.70;99.90;;;;;;8381757;28;20015;-69
2023/01/05 15:01:59;;;;;;;;;;;11.60;99.90;;;;;;8368111;28;19964;-69
2023/01/05 15:06:07;;;;;;;;;;;11.50;99.90;;;;;;8382330;28;20035;-69
2023/01/05 15:10:36;;;;;;;;;;;11.40;99.90;;;;;;8382058;28;19936;-69
2023/01/05 15:14:44;;;;;;;;;;;11.40;99.90;;;;;;8382477;28;19975;-69
2023/01/05 15:19:06;;;;;;;;;;;11.40;99.90;;;;;;8387511;28;19956;-69
2023/01/05 15:23:16;;;;;;;;;;;11.40;99.90;;;;;;8384981;28;19971;-69
2023/01/05 15:27:32;;;;;;;;;;;11.40;99.90;;;;;;8364907;28;19963;-69
2023/01/05 15:31:45;;;;;;;;;;;11.40;99.90;;;;;;8387202;28;19986;-69
2023/01/05 15:35:52;;;;;;;;;;;11.40;99.90;;;;;;8369612;28;19931;-69
2023/01/05 15:39:54;;;;;;;;;;;11.30;99.90;;;;;;8396922;28;19933;-68
2023/01/05 15:43:56;;;;;;;;;;;11.30;99.90;;;;;;8368314;28;20412;-68
2023/01/05 15:48:05;;;;;;;;;;;11.20;99.90;;;;;;8372791;28;20248;-69
2023/01/05 15:52:17;;;;;;;;;;;11.10;99.90;;;;;;8374478;28;19925;-69
2023/01/05 15:56:26;;;;;;;;;;;11.00;99.90;;;;;;8382958;28;19928;-69
2023/01/05 16:00:33;;;;;;;;;;;10.90;99.90;;;;;;8373702;28;19924;-68
2023/01/05 16:04:34;;;;;;;;;;;10.80;99.90;;;;;;8369536;28;19925;-69
2023/01/05 16:08:41;;;;;;;;;;;10.80;99.90;;;;;;8372398;28;19931;-69
2023/01/05 16:12:43;;;;;;;;;;;10.80;99.90;;;;;;8369659;28;20296;-68
2023/01/05 16:16:48;;;;;;;;;;;10.80;99.90;;;;;;8387938;28;19924;-69
2023/01/05 16:20:54;;;;;;;;;;;10.80;99.90;;;;;;8370482;28;19928;-68
2023/01/05 16:25:02;;;;;;;;;;;10.80;99.90;;;;;;8388285;28;19928;-69
2023/01/05 16:29:19;;;;;;;;;;;10.70;99.90;;;;;;8400116;28;20342;-69
2023/01/05 16:33:26;;;;;;;;;;;10.70;99.90;;;;;;8386318;28;20371;-68
2023/01/05 16:37:28;;;;;;;;;;;10.70;99.90;;;;;;8376891;28;19956;-68
2023/01/05 16:41:29;;;;;;;;;;;10.70;99.90;;;;;;8398274;28;19924;-69
2023/01/05 17:01:17;;;;;;;;;;;10.50;99.90;;;;;;8373117;28;20412;-68
2023/01/05 17:05:20;;;;;;;;;;;10.50;99.90;;;;;;8383757;28;19925;-68
2023/01/05 17:09:24;;;;;;;;;;;10.50;99.90;;;;;;8382947;28;20034;-68
2023/01/05 17:13:31;;;;;;;;;;;10.50;99.90;;;;;;8375431;28;19924;-68
2023/01/05 17:17:33;;;;;;;;;;;10.60;99.90;;;;;;8363282;28;19930;-69
2023/01/05 17:21:34;;;;;;;;;;;10.60;99.90;;;;;;8362682;28;20431;-68
2023/01/05 17:25:42;;;;;;;;;;;10.60;99.90;;;;;;8391382;28;20030;-69
2023/01/05 17:29:44;;;;;;;;;;;10.60;99.90;;;;;;8377228;28;19924;-68
2023/01/05 17:33:45;;;;;;;;;;;10.50;99.90;;;;;;8394452;28;19931;-68
2023/01/05 17:37:47;;;;;;;;;;;10.50;99.90;;;;;;8387773;28;19925;-68
2023/01/05 17:41:49;;;;;;;;;;;10.50;99.90;;;;;;8385551;28;19932;-69
2023/01/05 17:45:51;;;;;;;;;;;10.60;99.90;;;;;;8356967;28;19971;-68
2023/01/05 17:49:53;;;;;;;;;;;10.60;99.90;;;;;;8348578;28;20392;-68
2023/01/05 17:53:55;;;;;;;;;;;10.60;99.90;;;;;;8351615;28;20019;-69
2023/01/05 17:57:57;;;;;;;;;;;10.60;99.90;;;;;;8343734;28;19943;-68
2023/01/05 18:01:59;;;;;;;;;;;10.60;99.90;;;;;;8347386;28;20256;-69
2023/01/05 18:06:00;;;;;;;;;;;10.70;99.90;;;;;;8346621;28;19940;-68
2023/01/05 18:10:04;;;;;;;;;;;10.70;99.90;;;;;;8359191;28;19932;-68
2023/01/05 18:14:05;;;;;;;;;;;10.70;99.90;;;;;;8340616;28;19928;-68
2023/01/05 18:18:08;;;;;;;;;;;10.70;99.90;;;;;;8344967;28;19932;-68
2023/01/05 18:22:10;;;;;;;;;;;10.70;99.90;;;;;;8343706;28;19939;-68
2023/01/05 18:26:11;;;;;;;;;;;10.80;99.90;;;;;;8352563;28;20353;-68
2023/01/05 18:30:13;;;;;;;;;;;10.80;99.90;;;;;;8361775;28;19976;-69
2023/01/05 18:34:15;;;;;;;;;;;10.90;99.90;;;;;;8351394;28;19932;-69
2023/01/05 18:38:16;;;;;;;;;;;10.90;99.90;;;;;;8351444;28;19948;-68
2023/01/05 18:42:18;;;;;;;;;;;10.90;99.90;;;;;;8352861;28;19931;-68
2023/01/05 18:46:20;;;;;;;;;;;10.90;99.90;;;;;;8363612;28;20402;-68
2023/01/05 18:50:21;;;;;;;;;;;11.00;99.90;;;;;;8378963;28;19924;-68
2023/01/05 18:54:23;;;;;;;;;;;11.00;99.90;;;;;;8382943;28;19939;-68
2023/01/05 18:58:25;;;;;;;;;;;11.00;99.90;;;;;;8384856;28;19924;-69
2023/01/05 19:02:27;;;;;;;;;;;11.00;99.90;;;;;;8388543;28;19925;-68
2023/01/05 19:06:28;;;;;;;;;;;11.00;99.90;;;;;;8379701;28;19947;-68
2023/01/05 19:10:30;;;;;;;;;;;11.10;99.90;;;;;;8391057;28;19947;-68
2023/01/05 19:14:32;;;;;;;;;;;11.10;99.90;;;;;;8387271;28;19924;-68
2023/01/05 19:18:34;;;;;;;;;;;11.10;99.90;;;;;;8389929;28;19928;-68
2023/01/05 19:22:35;;;;;;;;;;;11.10;99.90;;;;;;8381362;28;19943;-68
2023/01/05 19:26:37;;;;;;;;;;;11.20;99.90;;;;;;8374286;28;19925;-68
2023/01/05 19:30:38;;;;;;;;;;;11.20;99.90;;;;;;8380535;28;19924;-68
2023/01/05 19:34:40;;;;;;;;;;;11.20;99.90;;;;;;8371812;28;20384;-68
2023/01/05 19:38:42;;;;;;;;;;;11.20;99.90;;;;;;8369553;28;20380;-68
2023/01/05 19:42:44;;;;;;;;;;;11.20;99.90;;;;;;8370902;28;19925;-69
2023/01/05 19:46:47;;;;;;;;;;;11.20;99.90;;;;;;8382865;28;19928;-68
2023/01/05 19:50:59;;;;;;;;;;;11.20;99.90;;;;;;8388678;28;19925;-68
2023/01/05 19:55:01;;;;;;;;;;;11.20;99.90;;;;;;8354832;28;19928;-69
2023/01/05 19:59:05;;;;;;;;;;;11.30;99.90;;;;;;8380921;28;20372;-69
2023/01/05 20:03:06;;;;;;;;;;;11.30;99.90;;;;;;8385821;28;19936;-68
2023/01/05 20:07:09;;;;;;;;;;;11.20;99.90;;;;;;8383624;28;20338;-68
2023/01/05 20:11:11;;;;;;;;;;;11.20;99.90;;;;;;8378527;28;19928;-69
2023/01/05 20:15:13;;;;;;;;;;;11.20;99.90;;;;;;8363640;28;19924;-69
2023/01/05 20:19:15;;;;;;;;;;;11.20;99.90;;;;;;8386085;28;19939;-68
2023/01/05 20:23:17;;;;;;;;;;;11.20;99.90;;;;;;8388717;28;19960;-68
2023/01/05 20:27:19;;;;;;;;;;;11.10;99.90;;;;;;8382592;28;20535;-68
2023/01/05 20:31:25;;;;;;;;;;;11.10;99.90;;;;;;8397158;28;19947;-69
2023/01/05 20:35:27;;;;;;;;;;;11.10;99.90;;;;;;8375327;28;19925;-68
2023/01/05 20:39:29;;;;;;;;;;;11.20;99.90;;;;;;8392476;28;19932;-69
2023/01/05 20:43:31;;;;;;;;;;;11.20;99.90;;;;;;8367688;28;19955;-68
2023/01/05 20:47:33;;;;;;;;;;;11.20;99.90;;;;;;8377502;28;19925;-69
2023/01/05 20:51:47;;;;;;;;;;;11.20;99.90;;;;;;8386552;28;19925;-68
2023/01/05 20:55:50;;;;;;;;;;;11.20;99.90;;;;;;8384791;28;19924;-68
2023/01/05 20:59:52;;;;;;;;;;;11.20;99.90;;;;;;8379915;28;20391;-68
2023/01/05 21:03:53;;;;;;;;;;;11.30;99.90;;;;;;8368632;28;19924;-68
2023/01/05 21:07:55;;;;;;;;;;;11.30;99.90;;;;;;8385267;28;19974;-68
2023/01/05 21:11:57;;;;;;;;;;;11.30;99.90;;;;;;8365318;28;19930;-68
2023/01/05 21:16:01;;;;;;;;;;;11.30;99.90;;;;;;8388952;28;19936;-68
2023/01/05 21:20:03;;;;;;;;;;;11.30;99.90;;;;;;8381107;28;19940;-68
2023/01/05 21:24:06;;;;;;;;;;;11.20;99.90;;;;;;8386395;28;19975;-68
2023/01/05 21:28:08;;;;;;;;;;;11.10;99.90;;;;;;8382594;28;20372;-68
2023/01/05 21:32:10;;;;;;;;;;;11.10;99.90;;;;;;8393697;28;19963;-68
2023/01/05 21:36:13;;;;;;;;;;;11.10;99.90;;;;;;8377949;28;19928;-69
2023/01/05 21:40:14;;;;;;;;;;;11.10;99.90;;;;;;8385451;28;19968;-69
2023/01/05 21:44:16;;;;;;;;;;;11.10;99.90;;;;;;8389894;28;19981;-69
2023/01/05 21:48:18;;;;;;;;;;;11.20;99.90;;;;;;8378710;28;19932;-68
2023/01/05 21:56:40;;;;;;;;;;;11.20;99.90;;;;;;8378366;28;19972;-68
2023/01/05 22:00:42;;;;;;;;;;;11.20;99.90;;;;;;8378729;28;19972;-68
2023/01/05 22:04:44;;;;;;;;;;;11.20;99.90;;;;;;8390296;28;19928;-68
2023/01/05 22:08:45;;;;;;;;;;;11.20;99.90;;;;;;8373538;28;19939;-68
2023/01/05 22:12:47;;;;;;;;;;;11.20;99.90;;;;;;8380776;28;20303;-69
2023/01/05 22:16:49;;;;;;;;;;;11.20;99.90;;;;;;8388432;28;22094;-69
2023/01/05 22:21:01;;;;;;;;;;;11.20;99.90;;;;;;8378141;28;19931;-68
2023/01/05 22:25:03;;;;;;;;;;;11.20;99.90;;;;;;8387991;28;19925;-68
2023/01/05 22:29:04;;;;;;;;;;;11.10;99.90;;;;;;8379797;28;19947;-69
2023/01/05 22:33:06;;;;;;;;;;;11.10;99.90;;;;;;8376232;28;19929;-68
2023/01/05 22:37:08;;;;;;;;;;;11.10;99.90;;;;;;8380883;28;19967;-68
2023/01/05 22:41:11;;;;;;;;;;;11.20;99.90;;;;;;8373743;28;20330;-68
2023/01/05 22:45:12;;;;;;;;;;;11.10;99.90;;;;;;8378789;28;19924;-69
2023/01/05 22:49:15;;;;;;;;;;;11.20;99.90;;;;;;8382177;28;20371;-69
2023/01/05 22:53:16;;;;;;;;;;;11.20;99.90;;;;;;8369489;28;19925;-68
2023/01/05 22:57:18;;;;;;;;;;;11.20;99.90;;;;;;8383832;28;19940;-68
2023/01/05 23:01:21;;;;;;;;;;;11.20;99.90;;;;;;8379318;28;19967;-68
2023/01/05 23:05:23;;;;;;;;;;;11.20;99.90;;;;;;8381189;28;19928;-68
2023/01/05 23:09:24;;;;;;;;;;;11.20;99.90;;;;;;8366451;28;19978;-68
2023/01/05 23:13:26;;;;;;;;;;;11.20;99.90;;;;;;8373471;28;19928;-68
2023/01/05 23:17:28;;;;;;;;;;;11.10;99.90;;;;;;8381014;28;19924;-69
2023/01/05 23:21:30;;;;;;;;;;;11.00;99.90;;;;;;8374604;28;19925;-68
2023/01/05 23:25:32;;;;;;;;;;;10.90;99.90;;;;;;8368651;28;19979;-68
2023/01/05 23:29:33;;;;;;;;;;;10.90;99.90;;;;;;8385765;28;20007;-68
2023/01/05 23:33:35;;;;;;;;;;;10.80;99.90;;;;;;8390124;28;20010;-68
2023/01/05 23:37:37;;;;;;;;;;;10.80;99.90;;;;;;8373455;28;19924;-68
2023/01/05 23:41:39;;;;;;;;;;;10.80;99.90;;;;;;8374213;28;19932;-68
2023/01/05 23:45:41;;;;;;;;;;;10.80;99.90;;;;;;8378652;28;20357;-68
2023/01/05 23:49:43;;;;;;;;;;;10.90;99.90;;;;;;8402399;28;20348;-68
2023/01/05 23:53:46;;;;;;;;;;;10.90;99.90;;;;;;8388372;28;19925;-68
2023/01/05 23:57:48;;;;;;;;;;;11.00;99.90;;;;;;8361347;28;19928;-68
